Berryville, Texas
Current Conditions -  °F | °C
As of 6:35 PM on Thursday 18 Dec 2014 (Local Time) from KPSN Reporting Station
Haze Haze  
Wind Chill: 51°   Ceiling: 400
Heat Index: 51°   Visibility: 5mi
Dew Point: 50°   Wind: 5mph
Humidity: 96%   Direction: 20°NNE
Pressure: 30.13"   Gusts: NA
Location:  32.0056°N, 95.5543°W
Report Text: KPSN 190035Z AUTO 02004KT 5SM BR OVC004 11/10 A3013 RMK AO2 T01080102
Loading
Personal Weather Stations






























Interactive Weather Map New forecast layout! Learn more

10-Day Weather Forecast

Advertisements
Track Severe Weather on mobile